createdAt,value
2018-03-02T00:00:32.283Z,64.90
2018-03-02T00:01:34.793Z,65.00
2018-03-02T00:02:37.318Z,65.10
2018-03-02T00:03:40.623Z,65.30
2018-03-02T00:04:43.131Z,65.30
2018-03-02T00:05:45.632Z,65.40
2018-03-02T00:06:48.914Z,65.70
2018-03-02T00:07:52.186Z,66.40
2018-03-02T00:08:54.711Z,65.60
2018-03-02T00:09:57.249Z,65.70
2018-03-02T00:11:00.513Z,66.00
2018-03-02T00:12:03.025Z,65.80
2018-03-02T00:13:05.559Z,66.00
2018-03-02T00:14:08.876Z,66.30
2018-03-02T00:15:12.144Z,66.20
2018-03-02T00:16:14.655Z,66.10
2018-03-02T00:17:17.179Z,66.20
2018-03-02T00:18:19.697Z,66.50
2018-03-02T00:19:22.216Z,66.60
2018-03-02T00:20:24.719Z,66.60
2018-03-02T00:21:27.974Z,66.80
2018-03-02T00:22:31.652Z,66.70
2018-03-02T00:23:34.185Z,66.80
2018-03-02T00:24:37.031Z,67.00
2018-03-02T00:25:39.532Z,67.00
2018-03-02T00:26:42.773Z,67.30
2018-03-02T00:27:46.165Z,67.50
2018-03-02T00:28:48.673Z,67.40
2018-03-02T00:29:52.020Z,68.40
2018-03-02T00:30:54.524Z,67.50
2018-03-02T00:31:57.011Z,67.60
2018-03-02T00:32:59.508Z,68.30
2018-03-02T00:34:02.078Z,67.70
2018-03-02T00:35:04.603Z,67.80
2018-03-02T00:36:07.093Z,67.80
2018-03-02T00:37:10.608Z,68.10
2018-03-02T00:38:13.113Z,68.00
2018-03-02T00:39:15.596Z,68.10
2018-03-02T00:40:18.117Z,68.20
2018-03-02T00:41:21.666Z,68.30
2018-03-02T00:42:24.148Z,68.50
2018-03-02T00:43:26.629Z,68.60
2018-03-02T00:44:29.921Z,68.80
2018-03-02T00:45:33.216Z,69.00
2018-03-02T00:46:36.476Z,69.00
2018-03-02T00:47:39.391Z,68.90
2018-03-02T00:48:41.905Z,69.10
2018-03-02T00:49:44.389Z,68.90
2018-03-02T00:50:47.293Z,69.00
2018-03-02T00:51:49.819Z,69.10
2018-03-02T00:52:53.022Z,69.10
2018-03-02T00:53:55.833Z,69.20
2018-03-02T00:54:59.154Z,69.20
2018-03-02T00:56:01.665Z,69.30
2018-03-02T00:57:04.178Z,69.40
2018-03-02T00:58:06.710Z,69.50
2018-03-02T00:59:09.281Z,69.60
2018-03-02T01:00:11.789Z,69.70
2018-03-02T01:01:14.339Z,69.90
2018-03-02T01:02:16.841Z,69.90
2018-03-02T01:03:19.368Z,70.00
2018-03-02T01:04:22.097Z,70.10
2018-03-02T01:05:24.580Z,70.30
2018-03-02T01:06:27.320Z,70.40
2018-03-02T01:07:30.600Z,70.60
2018-03-02T01:08:33.121Z,70.60
2018-03-02T01:09:35.628Z,70.60
2018-03-02T01:10:38.111Z,70.70
2018-03-02T01:11:40.655Z,70.70
2018-03-02T01:12:43.185Z,70.80
2018-03-02T01:13:45.681Z,70.80
2018-03-02T01:14:48.201Z,70.90
2018-03-02T01:15:50.697Z,71.00
2018-03-02T01:16:53.204Z,71.00
2018-03-02T01:17:55.695Z,71.10
2018-03-02T01:18:58.194Z,71.20
2018-03-02T01:20:01.464Z,71.40
2018-03-02T01:21:03.958Z,71.50
2018-03-02T01:22:06.467Z,71.50
2018-03-02T01:23:09.515Z,71.70
2018-03-02T01:24:12.089Z,71.70
2018-03-02T01:25:14.592Z,71.70
2018-03-02T01:26:17.059Z,71.70
2018-03-02T01:27:19.570Z,71.80
2018-03-02T01:28:22.835Z,71.90
2018-03-02T01:29:25.351Z,72.10
2018-03-02T01:30:28.589Z,72.20
2018-03-02T01:31:31.124Z,71.60
2018-03-02T01:32:34.263Z,72.40
2018-03-02T01:33:36.752Z,72.50
2018-03-02T01:34:40.105Z,72.50
2018-03-02T01:35:42.680Z,72.50
2018-03-02T01:36:45.404Z,72.40
2018-03-02T01:37:48.702Z,72.60
2018-03-02T01:38:51.988Z,72.70
2018-03-02T01:39:56.200Z,72.90
2018-03-02T01:40:59.498Z,73.00
2018-03-02T01:42:02.296Z,72.90
2018-03-02T01:43:04.811Z,73.00
2018-03-02T01:44:07.535Z,73.20
2018-03-02T01:45:10.061Z,73.30
2018-03-02T01:46:12.567Z,73.30
2018-03-02T01:47:15.068Z,73.50
2018-03-02T01:48:17.589Z,73.60
2018-03-02T01:49:20.864Z,73.80
2018-03-02T01:50:23.366Z,73.70
2018-03-02T01:53:03.247Z,73.60
2018-03-02T01:54:05.829Z,73.80
2018-03-02T01:55:08.339Z,73.80
2018-03-02T01:56:10.857Z,74.00
2018-03-02T01:57:13.375Z,74.10
2018-03-02T01:58:15.916Z,74.20
2018-03-02T01:59:18.422Z,74.30
2018-03-02T02:00:20.939Z,74.40
2018-03-02T02:01:23.459Z,74.60
2018-03-02T02:02:25.984Z,74.80
2018-03-02T02:03:28.500Z,74.90
2018-03-02T02:04:31.021Z,75.00
2018-03-02T02:05:33.517Z,75.20
2018-03-02T02:06:36.031Z,75.40
2018-03-02T02:07:40.033Z,75.60
2018-03-02T02:08:42.545Z,75.60
2018-03-02T02:09:45.829Z,75.90
2018-03-02T02:10:49.090Z,76.00
2018-03-02T02:11:51.592Z,76.00
2018-03-02T02:12:54.085Z,76.00
2018-03-02T02:13:56.607Z,76.10
2018-03-02T02:14:59.116Z,76.10
2018-03-02T02:16:01.616Z,76.80
2018-03-02T02:17:04.118Z,76.50
2018-03-02T02:18:06.721Z,76.60
2018-03-02T02:19:09.222Z,77.10
2018-03-02T02:20:11.753Z,76.90
2018-03-02T02:21:15.022Z,77.30
2018-03-02T02:22:17.514Z,77.20
2018-03-02T02:23:20.781Z,77.50
2018-03-02T02:24:23.272Z,77.50
2018-03-02T02:25:26.546Z,77.60
2018-03-02T02:26:29.820Z,78.10
2018-03-02T02:27:32.337Z,77.70
2018-03-02T02:28:34.840Z,77.70
2018-03-02T02:29:37.356Z,78.50
2018-03-02T02:30:40.671Z,78.10
2018-03-02T02:31:43.184Z,78.00
2018-03-02T02:32:45.693Z,78.10
2018-03-02T02:33:48.198Z,78.10
2018-03-02T02:34:50.713Z,78.20
2018-03-02T02:35:54.000Z,78.40
2018-03-02T02:36:57.276Z,78.30
2018-03-02T02:37:59.779Z,78.30
2018-03-02T02:39:02.293Z,78.60
2018-03-02T02:40:04.803Z,78.80
2018-03-02T02:41:08.080Z,79.20
2018-03-02T02:42:10.759Z,79.90
2018-03-02T02:43:13.261Z,80.00
2018-03-02T02:44:15.796Z,79.40
2018-03-02T02:45:18.320Z,79.60
2018-03-02T02:46:20.858Z,79.10
2018-03-02T02:47:24.138Z,79.90
2018-03-02T02:48:27.399Z,80.20
2018-03-02T02:49:29.895Z,80.20
2018-03-02T02:50:33.180Z,80.30
2018-03-02T02:51:36.482Z,80.40
2018-03-02T02:52:39.771Z,80.50
2018-03-02T02:53:43.048Z,80.70
2018-03-02T02:54:46.371Z,80.80
2018-03-02T02:55:48.869Z,80.70
2018-03-02T02:56:51.396Z,80.80
2018-03-02T02:57:53.922Z,80.90
2018-03-02T02:58:56.427Z,81.10
2018-03-02T02:59:59.692Z,81.20
2018-03-02T03:01:02.184Z,81.10
2018-03-02T03:02:05.450Z,82.00
2018-03-02T03:03:07.950Z,82.00
2018-03-02T03:04:10.537Z,81.50
2018-03-02T03:05:13.039Z,81.60
2018-03-02T03:06:15.566Z,81.80
2018-03-02T03:07:18.085Z,81.80
2018-03-02T03:08:20.587Z,81.80
2018-03-02T03:09:23.843Z,82.10
2018-03-02T03:10:26.346Z,82.10
2018-03-02T03:11:29.609Z,82.30
2018-03-02T03:12:32.909Z,82.40
2018-03-02T03:13:35.422Z,82.30
2018-03-02T03:14:38.689Z,82.90
2018-03-02T03:15:41.291Z,82.80
2018-03-02T03:16:43.796Z,82.80
2018-03-02T03:17:46.315Z,83.00
2018-03-02T03:18:49.600Z,83.40
2018-03-02T03:19:52.120Z,83.40
2018-03-02T03:20:55.418Z,83.60
2018-03-02T03:21:58.690Z,83.70
2018-03-02T03:23:01.226Z,83.70
2018-03-02T03:24:03.726Z,83.80
2018-03-02T03:25:06.227Z,84.10
2018-03-02T03:26:08.750Z,84.30
2018-03-02T03:27:11.292Z,84.60
2018-03-02T03:28:13.826Z,84.50
2018-03-02T03:29:17.116Z,84.80
2018-03-02T03:30:20.377Z,84.90
2018-03-02T03:31:22.902Z,84.90
2018-03-02T03:32:25.418Z,85.10
2018-03-02T03:33:27.926Z,85.20
2018-03-02T03:34:31.187Z,85.50
2018-03-02T03:35:33.703Z,85.50
2018-03-02T03:36:36.205Z,85.50
2018-03-02T03:37:38.725Z,85.60
2018-03-02T03:38:42.013Z,86.00
2018-03-02T03:39:45.282Z,86.20
2018-03-02T03:40:47.804Z,86.20
2018-03-02T03:41:50.304Z,87.00
2018-03-02T03:42:52.805Z,86.30
2018-03-02T03:43:56.085Z,86.90
2018-03-02T03:44:59.362Z,87.60
2018-03-02T03:46:01.894Z,86.90
2018-03-02T03:47:04.442Z,87.10
2018-03-02T03:48:06.945Z,87.20
2018-03-02T03:49:09.535Z,87.50
2018-03-02T03:50:12.043Z,87.60
2018-03-02T03:51:14.564Z,87.70
2018-03-02T03:52:17.067Z,88.10
2018-03-02T03:53:19.560Z,88.20
2018-03-02T03:54:22.838Z,88.30
2018-03-02T03:55:25.363Z,88.30
2018-03-02T03:56:27.854Z,88.40
2018-03-02T03:57:30.341Z,88.50
2018-03-02T03:58:32.844Z,88.50
2018-03-02T03:59:36.104Z,88.80
2018-03-02T04:00:38.613Z,88.80
2018-03-02T04:01:41.906Z,89.00
2018-03-02T04:02:45.210Z,89.20
2018-03-02T04:03:47.718Z,89.20
2018-03-02T04:04:50.230Z,89.40
2018-03-02T04:05:53.514Z,89.70
2018-03-02T04:06:56.854Z,89.80
2018-03-02T04:07:59.379Z,89.70
2018-03-02T04:09:02.641Z,90.10
2018-03-02T04:10:05.170Z,90.10
2018-03-02T04:11:07.685Z,90.10
2018-03-02T04:12:10.280Z,90.10
2018-03-02T04:13:13.543Z,90.30
2018-03-02T04:14:16.041Z,90.20
2018-03-02T04:15:19.357Z,90.40
2018-03-02T04:16:21.847Z,90.40
2018-03-02T04:17:24.348Z,90.40
2018-03-02T04:18:26.873Z,90.40
2018-03-02T04:19:29.369Z,90.40
2018-03-02T04:20:32.647Z,90.50
2018-03-02T04:21:35.938Z,90.50
2018-03-02T04:22:39.202Z,90.20
2018-03-02T04:23:41.748Z,90.40
2018-03-02T04:24:44.259Z,90.40
2018-03-02T04:25:46.858Z,90.50
2018-03-02T04:26:49.393Z,90.60
2018-03-02T04:27:51.906Z,90.60
2018-03-02T04:28:54.431Z,90.60
2018-03-02T04:29:56.930Z,90.70
2018-03-02T04:31:00.207Z,90.80
2018-03-02T04:32:03.500Z,91.00
2018-03-02T04:33:06.772Z,91.00
2018-03-02T04:34:09.304Z,91.00
2018-03-02T04:35:11.825Z,91.10
2018-03-02T04:36:15.123Z,91.20
2018-03-02T04:37:18.409Z,91.30
2018-03-02T04:38:21.670Z,91.40
2018-03-02T04:39:24.337Z,91.30
2018-03-02T04:40:26.847Z,91.30
2018-03-02T04:41:29.349Z,91.30
2018-03-02T04:42:31.902Z,91.30
2018-03-02T04:43:35.208Z,91.40
2018-03-02T04:44:37.732Z,91.40
2018-03-02T04:45:40.298Z,91.40
2018-03-02T04:46:42.796Z,91.40
2018-03-02T04:47:46.128Z,91.60
2018-03-02T04:48:48.629Z,91.60
2018-03-02T04:49:51.134Z,91.60
2018-03-02T04:50:53.680Z,91.70
2018-03-02T04:51:56.192Z,91.70
2018-03-02T04:52:58.725Z,91.80
2018-03-02T04:54:01.222Z,91.90
2018-03-02T04:55:03.730Z,91.90
2018-03-02T04:56:06.224Z,92.00
2018-03-02T04:57:08.730Z,92.00
2018-03-02T04:58:11.294Z,92.00
2018-03-02T04:59:13.799Z,92.10
2018-03-02T05:00:17.073Z,92.20
2018-03-02T05:01:19.578Z,92.20
2018-03-02T05:02:22.079Z,92.30
2018-03-02T05:03:25.385Z,92.30
2018-03-02T05:04:27.900Z,92.20
2018-03-02T05:05:30.447Z,92.30
2018-03-02T05:06:32.947Z,92.40
2018-03-02T05:07:35.461Z,92.40
2018-03-02T05:08:37.998Z,92.50
2018-03-02T05:09:40.490Z,92.60
2018-03-02T05:10:43.761Z,92.60
2018-03-02T05:11:46.266Z,92.60
2018-03-02T05:12:48.772Z,92.70
2018-03-02T05:13:51.277Z,92.80
2018-03-02T05:14:54.549Z,92.90
2018-03-02T05:15:57.058Z,92.80
2018-03-02T05:16:59.579Z,92.90
2018-03-02T05:18:02.100Z,92.90
2018-03-02T05:19:04.634Z,93.00
2018-03-02T05:20:07.152Z,93.00
2018-03-02T05:21:09.716Z,93.10
2018-03-02T05:22:12.348Z,93.20
2018-03-02T05:23:14.870Z,93.30
2018-03-02T05:24:17.377Z,93.40
2018-03-02T05:25:19.896Z,93.40
2018-03-02T05:26:22.417Z,93.50
2018-03-02T05:27:24.923Z,93.60
2018-03-02T05:28:28.207Z,93.60
2018-03-02T05:29:31.487Z,93.60
2018-03-02T05:30:34.764Z,93.60
2018-03-02T05:31:37.270Z,93.60
2018-03-02T05:32:39.775Z,93.60
2018-03-02T05:33:42.303Z,93.70
2018-03-02T05:34:45.579Z,93.90
2018-03-02T05:35:48.855Z,93.90
2018-03-02T05:36:52.124Z,93.80
2018-03-02T05:37:54.631Z,94.00
2018-03-02T05:38:57.948Z,94.10
2018-03-02T05:40:00.467Z,94.10
2018-03-02T05:41:04.489Z,94.20
2018-03-02T05:42:07.762Z,94.30
2018-03-02T05:43:11.147Z,94.40
2018-03-02T05:44:13.688Z,94.30
2018-03-02T05:45:16.210Z,94.40
2018-03-02T05:46:19.476Z,94.40
2018-03-02T05:47:22.756Z,94.50
2018-03-02T05:48:25.290Z,94.50
2018-03-02T05:49:27.854Z,94.50
2018-03-02T05:50:30.367Z,94.50
2018-03-02T05:51:32.912Z,94.60
2018-03-02T05:52:35.434Z,94.50
2018-03-02T05:53:37.959Z,94.60
2018-03-02T05:54:40.456Z,94.50
2018-03-02T05:55:42.967Z,94.60
2018-03-02T05:56:45.480Z,94.70
2018-03-02T05:57:48.026Z,94.70
2018-03-02T05:58:50.523Z,94.80
2018-03-02T05:59:53.048Z,94.80
2018-03-02T06:00:55.563Z,94.90
2018-03-02T06:01:58.094Z,94.90
2018-03-02T06:03:00.599Z,94.90
2018-03-02T06:04:03.099Z,95.00
2018-03-02T06:05:06.379Z,95.00
2018-03-02T06:06:08.901Z,95.00
2018-03-02T06:07:11.476Z,95.00
2018-03-02T06:08:14.006Z,95.10
2018-03-02T06:09:16.520Z,95.00
2018-03-02T06:10:19.023Z,95.10
2018-03-02T06:11:21.538Z,95.20
2018-03-02T06:12:25.020Z,95.30
2018-03-02T06:13:28.286Z,95.20
2018-03-02T06:14:32.333Z,95.30
2018-03-02T06:15:34.823Z,95.30
2018-03-02T06:16:37.331Z,95.30
2018-03-02T06:17:39.844Z,95.30
2018-03-02T06:18:42.349Z,95.30
2018-03-02T06:19:44.869Z,95.30
2018-03-02T06:20:48.127Z,95.40
2018-03-02T06:21:50.651Z,95.40
2018-03-02T06:22:53.170Z,95.50
2018-03-02T06:23:55.748Z,95.50
2018-03-02T06:24:59.073Z,95.60
2018-03-02T06:26:01.599Z,95.60
2018-03-02T06:27:05.648Z,95.90
2018-03-02T06:28:08.163Z,95.60
2018-03-02T06:29:11.023Z,95.50
2018-03-02T06:30:13.537Z,95.60
2018-03-02T06:31:17.554Z,95.60
2018-03-02T06:32:20.822Z,95.60
2018-03-02T06:33:23.332Z,95.60
2018-03-02T06:34:25.853Z,95.60
2018-03-02T06:35:28.370Z,95.50
2018-03-02T06:36:30.892Z,95.40
2018-03-02T06:37:33.397Z,95.50
2018-03-02T06:38:36.668Z,95.50
2018-03-02T06:39:39.169Z,95.40
2018-03-02T06:40:41.673Z,95.40
2018-03-02T06:41:44.183Z,95.50
2018-03-02T06:42:47.495Z,95.40
2018-03-02T06:43:50.770Z,95.40
2018-03-02T06:44:54.043Z,95.30
2018-03-02T06:45:56.541Z,95.30
2018-03-02T06:46:59.054Z,95.30
2018-03-02T06:48:01.578Z,95.30
2018-03-02T06:49:04.842Z,95.40
2018-03-02T06:50:07.336Z,95.30
2018-03-02T06:51:10.820Z,95.40
2018-03-02T06:52:14.099Z,95.30
2018-03-02T06:53:16.621Z,95.30
2018-03-02T06:54:19.176Z,95.30
2018-03-02T06:55:21.685Z,95.20
2018-03-02T06:56:24.201Z,95.10
2018-03-02T06:57:26.709Z,95.20
2018-03-02T06:58:29.250Z,95.20
2018-03-02T06:59:31.764Z,95.20
2018-03-02T07:00:34.290Z,95.00
2018-03-02T07:01:36.793Z,95.00
2018-03-02T07:02:39.300Z,95.00
2018-03-02T07:03:41.810Z,94.90
2018-03-02T07:04:44.312Z,94.90
2018-03-02T07:05:46.829Z,94.90
2018-03-02T07:06:50.111Z,94.70
2018-03-02T07:07:53.386Z,94.60
2018-03-02T07:08:55.896Z,94.60
2018-03-02T07:09:58.401Z,94.90
2018-03-02T07:11:00.919Z,94.70
2018-03-02T07:12:04.192Z,94.50
2018-03-02T07:13:06.704Z,94.50
2018-03-02T07:14:09.211Z,94.60
2018-03-02T07:15:11.886Z,94.40
2018-03-02T07:16:15.906Z,94.30
2018-03-02T07:17:18.429Z,94.20
2018-03-02T07:18:20.923Z,94.00
2018-03-02T07:19:23.430Z,93.90
2018-03-02T07:20:26.723Z,93.80
2018-03-02T07:21:30.047Z,93.60
2018-03-02T07:22:33.270Z,93.30
2018-03-02T07:23:35.785Z,93.30
2018-03-02T07:24:38.301Z,93.00
2018-03-02T07:25:40.790Z,92.70
2018-03-02T07:26:43.296Z,92.50
2018-03-02T07:27:46.568Z,92.00
2018-03-02T07:28:49.088Z,92.00
2018-03-02T07:29:51.622Z,91.80
2018-03-02T07:30:54.891Z,92.00
2018-03-02T07:31:57.966Z,91.90
2018-03-02T07:33:00.489Z,91.70
2018-03-02T07:34:03.473Z,91.40
2018-03-02T07:35:05.984Z,90.90
2018-03-02T07:36:08.554Z,90.80
2018-03-02T07:37:11.294Z,90.40
2018-03-02T07:38:13.865Z,90.20
2018-03-02T07:39:16.373Z,90.20
2018-03-02T07:40:19.388Z,90.00
2018-03-02T07:41:22.668Z,89.50
2018-03-02T07:42:25.163Z,89.50
2018-03-02T07:43:27.653Z,90.00
2018-03-02T07:44:30.161Z,89.30
2018-03-02T07:45:32.678Z,89.70
2018-03-02T07:46:35.183Z,88.90
2018-03-02T07:47:37.708Z,88.50
2018-03-02T07:48:40.967Z,88.40
2018-03-02T07:49:43.544Z,88.40
2018-03-02T07:50:46.053Z,87.80
2018-03-02T07:51:48.563Z,87.60
2018-03-02T07:52:51.089Z,87.20
2018-03-02T07:53:53.612Z,87.10
2018-03-02T07:54:56.168Z,87.00
2018-03-02T07:55:58.669Z,86.70
2018-03-02T07:57:01.214Z,86.40
2018-03-02T07:58:03.725Z,85.80
2018-03-02T07:59:06.211Z,85.20
2018-03-02T08:00:08.757Z,84.10
2018-03-02T08:01:11.274Z,82.80
2018-03-02T08:02:13.785Z,82.30
2018-03-02T08:03:16.298Z,82.70
2018-03-02T08:04:18.823Z,82.60
2018-03-02T08:05:21.328Z,82.60
2018-03-02T08:06:24.628Z,82.10
2018-03-02T08:07:27.143Z,82.00
2018-03-02T08:08:29.654Z,82.50
2018-03-02T08:09:32.914Z,83.00
2018-03-02T08:10:35.525Z,83.00
2018-03-02T08:11:38.066Z,83.00
2018-03-02T08:12:40.623Z,83.00
2018-03-02T08:13:43.150Z,83.20
2018-03-02T08:14:45.652Z,82.10
2018-03-02T08:15:48.144Z,81.20
2018-03-02T08:16:50.692Z,81.00
2018-03-02T08:17:53.196Z,81.40
2018-03-02T08:18:56.494Z,81.20
2018-03-02T08:19:59.901Z,80.60
2018-03-02T08:21:02.400Z,80.60
2018-03-02T08:22:04.908Z,80.90
2018-03-02T08:23:07.463Z,79.80
2018-03-02T08:24:10.091Z,80.30
2018-03-02T08:25:12.634Z,80.10
2018-03-02T08:26:15.913Z,79.10
2018-03-02T08:27:18.432Z,79.00
2018-03-02T08:28:20.940Z,78.90
2018-03-02T08:29:23.442Z,78.00
2018-03-02T08:30:26.704Z,78.10
2018-03-02T08:31:29.199Z,78.00
2018-03-02T08:32:32.476Z,78.30
2018-03-02T08:33:35.731Z,78.00
2018-03-02T08:34:39.035Z,78.30
2018-03-02T08:35:41.581Z,78.20
2018-03-02T08:36:44.096Z,78.00
2018-03-02T08:37:47.381Z,78.60
2018-03-02T08:38:49.991Z,77.80
2018-03-02T08:39:52.483Z,78.50
2018-03-02T08:40:55.505Z,77.90
2018-03-02T08:41:58.014Z,77.20
2018-03-02T08:43:00.641Z,76.30
2018-03-02T08:44:03.151Z,76.80
2018-03-02T08:45:05.661Z,76.00
2018-03-02T08:46:08.179Z,75.80
2018-03-02T08:47:12.209Z,76.10
2018-03-02T08:48:15.177Z,76.10
2018-03-02T08:49:17.674Z,75.30
2018-03-02T08:50:20.255Z,74.50
2018-03-02T08:51:22.814Z,74.50
2018-03-02T08:52:25.456Z,74.30
2018-03-02T08:53:27.955Z,74.10
2018-03-02T08:54:30.454Z,74.10
2018-03-02T08:55:32.975Z,73.90
2018-03-02T08:56:35.499Z,74.00
2018-03-02T08:57:38.048Z,74.10
2018-03-02T08:58:40.622Z,74.40
2018-03-02T08:59:43.125Z,74.20
2018-03-02T09:00:46.424Z,73.50
2018-03-02T09:01:49.711Z,73.10
2018-03-02T09:02:52.964Z,73.20
2018-03-02T09:03:55.465Z,73.10
2018-03-02T09:04:58.755Z,72.90
2018-03-02T09:06:02.048Z,72.20
2018-03-02T09:07:05.324Z,71.80
2018-03-02T09:08:08.118Z,71.80
2018-03-02T09:09:11.663Z,71.30
2018-03-02T09:10:14.233Z,71.20
2018-03-02T09:11:17.232Z,71.00
2018-03-02T09:12:21.251Z,71.30
2018-03-02T09:13:24.044Z,71.40
2018-03-02T09:14:27.323Z,70.70
2018-03-02T09:15:30.592Z,71.50
2018-03-02T09:16:33.871Z,71.10
2018-03-02T09:17:36.417Z,71.10
2018-03-02T09:18:38.941Z,71.00
2018-03-02T09:19:42.240Z,71.40
2018-03-02T09:20:45.505Z,71.10
2018-03-02T09:21:48.780Z,70.90
2018-03-02T09:22:51.293Z,70.90
2018-03-02T09:23:54.553Z,70.40
2018-03-02T09:24:58.591Z,70.20
2018-03-02T09:26:01.110Z,70.20
2018-03-02T09:27:03.628Z,69.90
2018-03-02T09:28:06.910Z,69.70
2018-03-02T09:29:10.402Z,69.60
2018-03-02T09:30:13.845Z,69.40
2018-03-02T09:31:16.344Z,69.40
2018-03-02T09:32:18.883Z,69.40
2018-03-02T09:33:21.397Z,69.60
2018-03-02T09:34:24.680Z,70.00
2018-03-02T09:35:27.184Z,69.90
2018-03-02T09:36:29.705Z,70.10
2018-03-02T09:37:32.230Z,69.60
2018-03-02T09:38:34.743Z,69.70
2018-03-02T09:39:37.245Z,69.50
2018-03-02T09:40:40.521Z,69.60
2018-03-02T09:41:43.021Z,69.60
2018-03-02T09:42:45.571Z,69.70
2018-03-02T09:43:48.836Z,68.90
2018-03-02T09:44:51.331Z,68.80
2018-03-02T09:45:54.616Z,68.60
2018-03-02T09:46:57.878Z,68.60
2018-03-02T09:48:00.393Z,68.40
2018-03-02T09:49:02.896Z,68.60
2018-03-02T09:50:05.417Z,68.60
2018-03-02T09:51:08.716Z,68.40
2018-03-02T09:52:11.356Z,68.30
2018-03-02T09:53:13.873Z,68.20
2018-03-02T09:54:16.374Z,68.40
2018-03-02T09:55:18.893Z,68.10
2018-03-02T09:56:22.204Z,68.20
2018-03-02T09:57:24.707Z,68.10
2018-03-02T09:58:27.229Z,68.50
2018-03-02T09:59:30.521Z,68.20
2018-03-02T10:00:33.033Z,68.20
2018-03-02T10:01:35.539Z,68.20
2018-03-02T10:02:38.046Z,68.20
2018-03-02T10:03:40.570Z,68.10
2018-03-02T10:04:43.126Z,68.10
2018-03-02T10:05:45.597Z,67.30
2018-03-02T10:06:48.140Z,67.10
2018-03-02T10:07:50.681Z,67.10
2018-03-02T10:08:53.975Z,67.10
2018-03-02T10:09:56.469Z,67.00
2018-03-02T10:10:58.988Z,67.20
2018-03-02T10:12:01.501Z,67.20
2018-03-02T10:13:04.015Z,66.70
2018-03-02T10:14:06.524Z,66.40
2018-03-02T10:15:09.070Z,66.40
2018-03-02T10:16:11.762Z,66.30
2018-03-02T10:17:15.059Z,65.90
2018-03-02T10:18:17.586Z,65.80
2018-03-02T10:19:20.093Z,66.00
2018-03-02T10:20:23.359Z,66.00
2018-03-02T10:21:25.876Z,66.00
2018-03-02T10:22:28.388Z,65.80
2018-03-02T10:23:30.880Z,65.70
2018-03-02T10:24:34.159Z,65.30
2018-03-02T10:25:36.668Z,65.30
2018-03-02T10:26:39.188Z,65.20
2018-03-02T10:27:41.716Z,64.90
2018-03-02T10:28:44.264Z,64.60
2018-03-02T10:29:47.528Z,64.60
2018-03-02T10:30:50.876Z,64.40
2018-03-02T10:31:53.384Z,64.30
2018-03-02T10:32:55.887Z,64.20
2018-03-02T10:33:59.165Z,64.00
2018-03-02T10:35:02.524Z,63.80
2018-03-02T10:36:05.024Z,63.80
2018-03-02T10:37:08.315Z,63.60
2018-03-02T10:38:11.709Z,63.40
2018-03-02T10:39:14.972Z,63.30
2018-03-02T10:40:17.496Z,63.20
2018-03-02T10:41:20.008Z,63.00
2018-03-02T10:42:22.539Z,62.70
2018-03-02T10:43:25.069Z,62.80
2018-03-02T10:44:27.581Z,62.80
2018-03-02T10:45:30.120Z,62.80
2018-03-02T10:46:33.399Z,62.50
2018-03-02T10:47:36.661Z,63.00
2018-03-02T10:48:39.201Z,62.30
2018-03-02T10:49:41.723Z,61.40
2018-03-02T10:50:44.287Z,61.50
2018-03-02T10:51:46.776Z,61.40
2018-03-02T10:52:50.056Z,61.40
2018-03-02T10:53:53.345Z,61.70
2018-03-02T10:54:55.843Z,61.40
2018-03-02T10:55:58.362Z,61.10
2018-03-02T10:57:00.875Z,60.60
2018-03-02T10:58:03.373Z,61.00
2018-03-02T10:59:06.020Z,61.00
2018-03-02T11:00:08.770Z,60.90
2018-03-02T11:01:12.197Z,61.10
2018-03-02T11:02:20.399Z,60.90
2018-03-02T11:03:22.924Z,60.90
2018-03-02T11:04:31.299Z,60.80
2018-03-02T11:05:39.398Z,60.60
2018-03-02T11:06:41.920Z,60.70
2018-03-02T11:07:44.416Z,60.00
2018-03-02T11:08:47.675Z,59.90
2018-03-02T11:09:50.207Z,59.80
2018-03-02T11:10:52.711Z,60.50
2018-03-02T11:11:55.214Z,60.00
2018-03-02T11:12:57.718Z,59.60
2018-03-02T11:14:00.230Z,59.40
2018-03-02T11:15:02.830Z,59.20
2018-03-02T11:16:05.367Z,59.40
2018-03-02T11:17:07.865Z,59.60
2018-03-02T11:18:11.308Z,59.30
2018-03-02T11:19:13.826Z,59.30
2018-03-02T11:20:17.123Z,59.20
2018-03-02T11:21:19.643Z,59.20
2018-03-02T11:22:22.150Z,59.20
2018-03-02T11:23:25.414Z,58.80
2018-03-02T11:24:27.926Z,58.70
2018-03-02T11:25:30.437Z,58.70
2018-03-02T11:26:32.946Z,59.00
2018-03-02T11:27:36.210Z,58.70
2018-03-02T11:28:38.740Z,58.60
2018-03-02T11:29:41.242Z,58.50
2018-03-02T11:30:43.793Z,58.70
2018-03-02T11:31:46.315Z,58.60
2018-03-02T11:32:49.596Z,58.60
2018-03-02T11:33:52.872Z,58.00
2018-03-02T11:34:55.377Z,58.60
2018-03-02T11:35:57.883Z,59.00
2018-03-02T11:37:00.399Z,59.00
2018-03-02T11:38:02.915Z,59.10
2018-03-02T11:39:05.432Z,58.60
2018-03-02T11:40:08.711Z,58.50
2018-03-02T11:41:11.293Z,58.40
2018-03-02T11:42:13.919Z,58.70
2018-03-02T11:43:16.427Z,58.80
2018-03-02T11:44:18.938Z,58.90
2018-03-02T11:45:21.514Z,58.80
2018-03-02T11:46:24.027Z,58.50
2018-03-02T11:47:26.527Z,58.40
2018-03-02T11:48:29.793Z,58.40
2018-03-02T11:49:32.312Z,58.50
2018-03-02T11:50:34.811Z,58.40
2018-03-02T11:51:37.320Z,58.60
2018-03-02T11:52:39.876Z,58.30
2018-03-02T11:53:42.392Z,58.20
2018-03-02T11:54:44.904Z,59.10
2018-03-02T11:55:47.424Z,58.50
2018-03-02T11:56:49.933Z,58.60
2018-03-02T11:57:52.459Z,58.20
2018-03-02T11:58:55.730Z,58.20
2018-03-02T11:59:59.023Z,58.20
2018-03-02T12:01:02.318Z,57.50
2018-03-02T12:02:05.581Z,57.60
2018-03-02T12:03:08.107Z,57.50
2018-03-02T12:04:10.711Z,57.40
2018-03-02T12:05:13.292Z,57.80
2018-03-02T12:06:15.806Z,57.70
2018-03-02T12:07:19.098Z,57.90
2018-03-02T12:08:21.590Z,57.90
2018-03-02T12:09:24.103Z,58.20
2018-03-02T12:10:26.590Z,58.00
2018-03-02T12:11:29.880Z,57.90
2018-03-02T12:12:33.170Z,58.10
2018-03-02T12:13:36.437Z,58.10
2018-03-02T12:14:38.976Z,58.20
2018-03-02T12:15:41.485Z,57.90
2018-03-02T12:16:44.044Z,57.90
2018-03-02T12:17:46.523Z,57.70
2018-03-02T12:18:49.030Z,57.60
2018-03-02T12:19:51.541Z,57.40
2018-03-02T12:20:54.063Z,57.10
2018-03-02T12:21:56.595Z,57.10
2018-03-02T12:23:00.618Z,57.20
2018-03-02T12:24:03.903Z,57.00
2018-03-02T12:25:07.175Z,57.40
2018-03-02T12:26:09.720Z,57.00
2018-03-02T12:27:12.292Z,57.00
2018-03-02T12:28:14.879Z,56.60
2018-03-02T12:29:17.377Z,56.70
2018-03-02T12:30:19.878Z,56.80
2018-03-02T12:31:22.370Z,56.60
2018-03-02T12:32:24.870Z,56.70
2018-03-02T12:33:27.402Z,56.60
2018-03-02T12:34:29.909Z,56.50
2018-03-02T12:35:32.406Z,56.20
2018-03-02T12:36:35.721Z,56.40
2018-03-02T12:37:38.956Z,55.90
2018-03-02T12:38:41.495Z,55.80
2018-03-02T12:39:44.041Z,56.00
2018-03-02T12:40:46.544Z,56.10
2018-03-02T12:41:49.088Z,56.00
2018-03-02T12:42:51.592Z,55.90
2018-03-02T12:43:54.114Z,55.90
2018-03-02T12:44:57.368Z,55.60
2018-03-02T12:45:59.881Z,55.60
2018-03-02T12:47:02.387Z,55.80
2018-03-02T12:48:04.893Z,55.80
2018-03-02T12:49:07.500Z,55.70
2018-03-02T12:50:09.967Z,55.80
2018-03-02T12:51:12.550Z,56.00
2018-03-02T12:52:15.080Z,56.30
2018-03-02T12:53:17.580Z,56.20
2018-03-02T12:54:20.107Z,56.30
2018-03-02T12:55:22.650Z,56.50
2018-03-02T12:56:25.203Z,56.70
2018-03-02T12:57:27.872Z,56.40
2018-03-02T12:58:30.507Z,56.10
2018-03-02T12:59:33.052Z,56.10
2018-03-02T13:00:35.582Z,56.10
2018-03-02T13:01:38.192Z,55.80
2018-03-02T13:02:40.759Z,55.70
2018-03-02T13:03:43.268Z,55.70
2018-03-02T13:04:45.792Z,55.60
2018-03-02T13:05:48.314Z,55.60
2018-03-02T13:06:51.644Z,55.90
2018-03-02T13:07:54.161Z,55.70
2018-03-02T13:08:56.770Z,55.60
2018-03-02T13:09:59.314Z,55.80
2018-03-02T13:11:01.866Z,55.70
2018-03-02T13:12:04.382Z,56.00
2018-03-02T13:13:06.913Z,55.70
2018-03-02T13:14:10.590Z,55.50
2018-03-02T13:15:13.221Z,55.40
2018-03-02T13:16:15.800Z,55.50
2018-03-02T13:17:18.353Z,55.50
2018-03-02T13:18:33.593Z,55.70
2018-03-02T13:19:36.117Z,55.60
2018-03-02T13:20:38.687Z,55.60
2018-03-02T13:21:41.231Z,55.60
2018-03-02T13:22:43.758Z,55.50
2018-03-02T13:23:46.266Z,55.40
2018-03-02T13:24:48.764Z,55.20
2018-03-02T13:25:51.317Z,55.20
2018-03-02T13:27:06.484Z,54.80
2018-03-02T13:28:21.612Z,54.80
2018-03-02T13:29:24.130Z,54.70
2018-03-02T13:30:27.406Z,55.10